Time,TemperatureF,DewpointF,PressureIn,WindDirection,WindDirectionDegrees,WindSpeedMPH,WindSpeedGustMPH,Humidity,HourlyPrecipIn,Conditions,Clouds,dailyrainin,SoftwareType,DateUTC
2013-02-05 00:02:00,42.0,39.0,30.09,ESE,115,0.0,1.0,89,-99.99,,,-99.99,,2013-02-05 05:02:00,
2013-02-05 00:12:00,42.0,39.0,30.09,NW,308,1.0,2.0,90,-99.99,,,-99.99,,2013-02-05 05:12:00,
2013-02-05 00:22:00,41.0,39.0,30.09,WNW,286,1.0,2.0,91,-99.99,,,-99.99,,2013-02-05 05:22:00,
2013-02-05 00:32:00,41.0,39.0,30.09,NE,42,1.0,2.0,91,-99.99,,,-99.99,,2013-02-05 05:32:00,
2013-02-05 00:42:00,41.0,39.0,30.09,NE,42,1.0,2.0,91,-99.99,,,-99.99,,2013-02-05 05:42:00,
2013-02-05 00:52:00,41.0,39.0,30.09,NE,49,1.0,2.0,92,-99.99,,,-99.99,,2013-02-05 05:52:00,
2013-02-05 01:02:00,41.0,39.0,30.09,NE,49,1.0,2.0,92,-99.99,,,-99.99,,2013-02-05 06:02:00,
2013-02-05 01:11:00,41.0,38.0,30.09,South,174,2.0,3.0,91,-99.99,,,-99.99,,2013-02-05 06:11:00,
2013-02-05 01:21:00,41.0,38.0,30.09,South,174,2.0,3.0,91,-99.99,,,-99.99,,2013-02-05 06:21:00,
2013-02-05 01:32:00,41.0,38.0,30.09,NE,50,2.0,4.0,92,-99.99,,,-99.99,,2013-02-05 06:32:00,
2013-02-05 01:52:00,41.0,39.0,30.08,NE,47,3.0,5.0,91,-99.99,,,-99.99,,2013-02-05 06:52:00,
2013-02-05 02:01:00,41.0,39.0,30.08,NE,49,3.0,5.0,92,-99.99,,,-99.99,,2013-02-05 07:01:00,
2013-02-05 02:11:00,41.0,39.0,30.08,NE,49,3.0,5.0,92,-99.99,,,-99.99,,2013-02-05 07:11:00,
2013-02-05 02:22:00,41.0,39.0,30.08,South,181,3.0,5.0,92,-99.99,,,-99.99,,2013-02-05 07:22:00,
2013-02-05 02:32:00,43.0,40.0,30.07,NE,44,5.0,5.0,92,-99.99,,,-99.99,,2013-02-05 07:32:00,
2013-02-05 02:42:00,43.0,40.0,30.07,NE,44,5.0,7.0,92,-99.99,,,-99.99,,2013-02-05 07:42:00,
2013-02-05 02:52:00,49.0,42.0,30.07,NE,36,4.0,7.0,75,-99.99,,,-99.99,,2013-02-05 07:52:00,
2013-02-05 03:01:00,49.0,42.0,30.07,NE,36,4.0,7.0,75,-99.99,,,-99.99,,2013-02-05 08:01:00,
2013-02-05 03:11:00,49.0,41.0,30.06,NNE,30,4.0,6.0,75,-99.99,,,-99.99,,2013-02-05 08:11:00,
2013-02-05 03:21:00,47.0,41.0,30.06,NE,42,3.0,4.0,79,-99.99,,,-99.99,,2013-02-05 08:21:00,
2013-02-05 03:32:00,45.0,40.0,30.06,NNE,25,3.0,5.0,85,-99.99,,,-99.99,,2013-02-05 08:32:00,
2013-02-05 03:42:00,45.0,40.0,30.06,NNE,25,3.0,5.0,85,-99.99,,,-99.99,,2013-02-05 08:42:00,
2013-02-05 03:52:00,45.0,40.0,30.05,NNE,28,3.0,6.0,85,-99.99,,,-99.99,,2013-02-05 08:52:00,
2013-02-05 04:02:00,45.0,40.0,30.05,NNE,28,3.0,6.0,85,-99.99,,,-99.99,,2013-02-05 09:02:00,
2013-02-05 04:11:00,45.0,40.0,30.05,NNE,28,3.0,6.0,85,-99.99,,,-99.99,,2013-02-05 09:11:00,
2013-02-05 04:22:00,42.0,39.0,30.05,NNE,31,2.0,3.0,89,-99.99,,,-99.99,,2013-02-05 09:22:00,
2013-02-05 04:32:00,42.0,39.0,30.06,WSW,239,1.0,3.0,90,-99.99,,,-99.99,,2013-02-05 09:32:00,
2013-02-05 04:42:00,42.0,39.0,30.06,WSW,239,1.0,2.0,90,-99.99,,,-99.99,,2013-02-05 09:42:00,
2013-02-05 04:52:00,41.0,39.0,30.05,SW,226,1.0,2.0,91,-99.99,,,-99.99,,2013-02-05 09:52:00,
2013-02-05 05:02:00,41.0,39.0,30.05,SW,226,1.0,2.0,91,-99.99,,,-99.99,,2013-02-05 10:02:00,
2013-02-05 05:21:00,41.0,39.0,30.05,SW,224,1.0,1.0,93,-99.99,,,-99.99,,2013-02-05 10:21:00,
2013-02-05 05:32:00,40.0,38.0,30.05,SE,132,1.0,1.0,93,-99.99,,,-99.99,,2013-02-05 10:32:00,
2013-02-05 05:52:00,40.0,38.0,30.05,NE,38,1.0,3.0,94,-99.99,,,-99.99,,2013-02-05 10:52:00,
2013-02-05 06:01:00,39.0,38.0,30.05,East,85,1.0,3.0,94,-99.99,,,-99.99,,2013-02-05 11:01:00,
2013-02-05 06:11:00,39.0,38.0,30.05,East,85,1.0,3.0,94,-99.99,,,-99.99,,2013-02-05 11:11:00,
2013-02-05 06:22:00,39.0,37.0,30.05,West,264,1.0,1.0,94,-99.99,,,-99.99,,2013-02-05 11:22:00,
2013-02-05 06:32:00,39.0,37.0,30.05,West,264,1.0,1.0,94,-99.99,,,-99.99,,2013-02-05 11:32:00,
2013-02-05 06:42:00,39.0,37.0,30.06,SW,233,1.0,1.0,94,-99.99,,,-99.99,,2013-02-05 11:42:00,
2013-02-05 06:52:00,39.0,37.0,30.06,ENE,74,1.0,2.0,94,-99.99,,,-99.99,,2013-02-05 11:52:00,
2013-02-05 07:02:00,38.0,37.0,30.06,SSW,199,1.0,1.0,94,-99.99,,,-99.99,,2013-02-05 12:02:00,
2013-02-05 07:12:00,38.0,37.0,30.06,SSW,199,1.0,1.0,94,-99.99,,,-99.99,,2013-02-05 12:12:00,
2013-02-05 07:22:00,38.0,37.0,30.06,South,183,1.0,1.0,95,-99.99,,,-99.99,,2013-02-05 12:22:00,
2013-02-05 07:32:00,38.0,37.0,30.07,South,182,1.0,1.0,95,-99.99,,,-99.99,,2013-02-05 12:32:00,
2013-02-05 07:42:00,38.0,37.0,30.07,South,182,1.0,2.0,95,-99.99,,,-99.99,,2013-02-05 12:42:00,
2013-02-05 07:52:00,39.0,37.0,30.08,East,82,1.0,2.0,95,-99.99,,,-99.99,,2013-02-05 12:52:00,
2013-02-05 08:02:00,40.0,39.0,30.08,SE,131,1.0,3.0,95,-99.99,,,-99.99,,2013-02-05 13:02:00,
2013-02-05 08:12:00,40.0,39.0,30.08,SE,131,1.0,3.0,95,-99.99,,,-99.99,,2013-02-05 13:12:00,
2013-02-05 08:22:00,43.0,42.0,30.08,SE,132,3.0,4.0,94,-99.99,,,-99.99,,2013-02-05 13:22:00,
2013-02-05 08:32:00,49.0,44.0,30.08,ENE,57,4.0,4.0,84,-99.99,,,-99.99,,2013-02-05 13:32:00,
2013-02-05 08:42:00,49.0,44.0,30.08,ENE,57,4.0,7.0,84,-99.99,,,-99.99,,2013-02-05 13:42:00,
2013-02-05 08:52:00,55.0,45.0,30.08,East,100,2.0,4.0,67,-99.99,,,-99.99,,2013-02-05 13:52:00,
2013-02-05 09:01:00,58.0,44.0,30.08,SE,135,2.0,4.0,59,-99.99,,,-99.99,,2013-02-05 14:01:00,
2013-02-05 09:12:00,58.0,44.0,30.08,SE,135,2.0,5.0,59,-99.99,,,-99.99,,2013-02-05 14:12:00,
2013-02-05 09:21:00,57.0,41.0,30.09,ESE,120,2.0,4.0,53,-99.99,,,-99.99,,2013-02-05 14:21:00,
2013-02-05 09:32:00,64.0,47.0,30.09,ESE,123,3.0,5.0,52,-99.99,,,-99.99,,2013-02-05 14:32:00,
2013-02-05 09:52:00,66.0,48.0,30.10,ESE,103,3.0,5.0,51,-99.99,,,-99.99,,2013-02-05 14:52:00,
2013-02-05 10:02:00,69.0,50.0,30.10,SE,128,3.0,7.0,50,-99.99,,,-99.99,,2013-02-05 15:02:00,
2013-02-05 10:11:00,69.0,50.0,30.10,SE,128,3.0,7.0,50,-99.99,,,-99.99,,2013-02-05 15:11:00,
2013-02-05 10:22:00,71.0,51.0,30.10,SE,128,4.0,8.0,50,-99.99,,,-99.99,,2013-02-05 15:22:00,
2013-02-05 10:32:00,73.0,54.0,30.10,SE,135,6.0,10.0,51,-99.99,,,-99.99,,2013-02-05 15:32:00,
2013-02-05 10:52:00,73.0,55.0,30.10,SSE,153,8.0,13.0,52,-99.99,,,-99.99,,2013-02-05 15:52:00,
2013-02-05 11:01:00,74.0,56.0,30.10,SSE,165,8.0,13.0,52,-99.99,,,-99.99,,2013-02-05 16:01:00,
2013-02-05 11:12:00,74.0,56.0,30.10,SSE,165,8.0,13.0,52,-99.99,,,-99.99,,2013-02-05 16:12:00,
2013-02-05 11:22:00,74.0,55.0,30.09,SSE,161,7.0,14.0,50,-99.99,,,-99.99,,2013-02-05 16:22:00,
2013-02-05 11:32:00,75.0,54.0,30.08,SSE,161,7.0,15.0,47,-99.99,,,-99.99,,2013-02-05 16:32:00,
2013-02-05 11:42:00,75.0,54.0,30.08,SSE,161,7.0,15.0,47,-99.99,,,-99.99,,2013-02-05 16:42:00,
2013-02-05 11:52:00,76.0,54.0,30.08,SSE,165,8.0,12.0,46,-99.99,,,-99.99,,2013-02-05 16:52:00,
2013-02-05 12:01:00,77.0,55.0,30.08,SSE,163,6.0,12.0,45,-99.99,,,-99.99,,2013-02-05 17:01:00,
2013-02-05 12:12:00,77.0,55.0,30.08,SSE,163,6.0,12.0,45,-99.99,,,-99.99,,2013-02-05 17:12:00,
2013-02-05 12:22:00,77.0,54.0,30.08,SSE,168,5.0,12.0,44,-99.99,,,-99.99,,2013-02-05 17:22:00,
2013-02-05 12:32:00,78.0,54.0,30.07,SSW,193,4.0,14.0,44,-99.99,,,-99.99,,2013-02-05 17:32:00,
2013-02-05 12:42:00,78.0,54.0,30.07,SSW,193,4.0,14.0,44,-99.99,,,-99.99,,2013-02-05 17:42:00,
2013-02-05 12:52:00,77.0,55.0,30.07,SSW,201,4.0,9.0,45,-99.99,,,-99.99,,2013-02-05 17:52:00,
2013-02-05 13:02:00,77.0,54.0,30.06,WSW,239,5.0,9.0,44,-99.99,,,-99.99,,2013-02-05 18:02:00,
2013-02-05 13:11:00,77.0,54.0,30.06,WSW,239,5.0,9.0,44,-99.99,,,-99.99,,2013-02-05 18:11:00,
2013-02-05 13:22:00,79.0,54.0,30.06,West,268,4.0,8.0,42,-99.99,,,-99.99,,2013-02-05 18:22:00,
2013-02-05 13:32:00,79.0,55.0,30.05,South,173,5.0,8.0,42,-99.99,,,-99.99,,2013-02-05 18:32:00,
2013-02-05 13:42:00,79.0,55.0,30.05,South,173,5.0,11.0,42,-99.99,,,-99.99,,2013-02-05 18:42:00,
2013-02-05 13:52:00,79.0,55.0,30.04,SSW,193,6.0,11.0,44,-99.99,,,-99.99,,2013-02-05 18:52:00,
2013-02-05 14:02:00,80.0,56.0,30.03,SW,230,6.0,11.0,43,-99.99,,,-99.99,,2013-02-05 19:02:00,
2013-02-05 14:11:00,80.0,56.0,30.03,SW,230,6.0,11.0,43,-99.99,,,-99.99,,2013-02-05 19:11:00,
2013-02-05 14:22:00,80.0,56.0,30.03,WSW,256,6.0,14.0,43,-99.99,,,-99.99,,2013-02-05 19:22:00,
2013-02-05 14:32:00,81.0,55.0,30.02,West,263,5.0,14.0,41,-99.99,,,-99.99,,2013-02-05 19:32:00,
2013-02-05 14:42:00,81.0,55.0,30.02,West,263,5.0,11.0,41,-99.99,,,-99.99,,2013-02-05 19:42:00,
2013-02-05 14:52:00,79.0,55.0,30.02,West,262,6.0,14.0,43,-99.99,,,-99.99,,2013-02-05 19:52:00,
2013-02-05 15:02:00,80.0,56.0,30.02,WSW,240,5.0,10.0,42,-99.99,,,-99.99,,2013-02-05 20:02:00,
2013-02-05 15:11:00,80.0,56.0,30.02,WSW,240,5.0,10.0,42,-99.99,,,-99.99,,2013-02-05 20:11:00,
2013-02-05 15:21:00,80.0,55.0,30.01,South,179,4.0,9.0,42,-99.99,,,-99.99,,2013-02-05 20:21:00,
2013-02-05 15:32:00,78.0,55.0,30.01,SW,232,5.0,9.0,44,-99.99,,,-99.99,,2013-02-05 20:32:00,
2013-02-05 15:42:00,78.0,55.0,30.01,SW,232,5.0,8.0,44,-99.99,,,-99.99,,2013-02-05 20:42:00,
2013-02-05 15:52:00,79.0,55.0,30.01,WSW,246,6.0,11.0,43,-99.99,,,-99.99,,2013-02-05 20:52:00,
2013-02-05 16:02:00,80.0,55.0,30.01,WSW,238,4.0,11.0,42,-99.99,,,-99.99,,2013-02-05 21:02:00,
2013-02-05 16:11:00,80.0,55.0,30.01,WSW,238,4.0,9.0,42,-99.99,,,-99.99,,2013-02-05 21:11:00,
2013-02-05 16:22:00,80.0,56.0,30.01,SW,228,5.0,9.0,43,-99.99,,,-99.99,,2013-02-05 21:22:00,
2013-02-05 16:32:00,80.0,56.0,30.01,SW,228,5.0,9.0,43,-99.99,,,-99.99,,2013-02-05 21:32:00,
2013-02-05 16:42:00,80.0,56.0,30.00,WSW,241,4.0,10.0,43,-99.99,,,-99.99,,2013-02-05 21:42:00,
2013-02-05 16:52:00,79.0,56.0,30.01,SSW,195,5.0,8.0,45,-99.99,,,-99.99,,2013-02-05 21:52:00,
2013-02-05 17:01:00,79.0,56.0,30.01,SSW,210,3.0,8.0,45,-99.99,,,-99.99,,2013-02-05 22:01:00,
2013-02-05 17:11:00,79.0,56.0,30.01,SSW,210,3.0,6.0,45,-99.99,,,-99.99,,2013-02-05 22:11:00,
2013-02-05 17:22:00,78.0,55.0,30.00,SW,227,5.0,6.0,45,-99.99,,,-99.99,,2013-02-05 22:22:00,
2013-02-05 17:32:00,78.0,55.0,30.01,SW,234,4.0,9.0,45,-99.99,,,-99.99,,2013-02-05 22:32:00,
2013-02-05 17:42:00,78.0,55.0,30.01,SW,234,4.0,6.0,45,-99.99,,,-99.99,,2013-02-05 22:42:00,
2013-02-05 17:51:00,77.0,56.0,30.01,SW,230,4.0,7.0,47,-99.99,,,-99.99,,2013-02-05 22:51:00,
2013-02-05 18:02:00,76.0,56.0,30.01,SW,234,4.0,7.0,48,-99.99,,,-99.99,,2013-02-05 23:02:00,
2013-02-05 18:11:00,76.0,56.0,30.01,SW,234,4.0,7.0,48,-99.99,,,-99.99,,2013-02-05 23:11:00,
2013-02-05 18:22:00,74.0,56.0,30.01,SW,233,4.0,5.0,52,-99.99,,,-99.99,,2013-02-05 23:22:00,
2013-02-05 18:32:00,74.0,56.0,30.01,SW,233,4.0,5.0,52,-99.99,,,-99.99,,2013-02-05 23:32:00,
2013-02-05 18:42:00,72.0,55.0,30.01,SW,236,3.0,5.0,55,-99.99,,,-99.99,,2013-02-05 23:42:00,
2013-02-05 18:52:00,71.0,55.0,30.01,SW,234,2.0,3.0,57,-99.99,,,-99.99,,2013-02-05 23:52:00,
2013-02-05 19:02:00,69.0,56.0,30.02,West,265,2.0,3.0,62,-99.99,,,-99.99,,2013-02-06 00:02:00,
2013-02-05 19:12:00,69.0,56.0,30.02,West,265,2.0,3.0,62,-99.99,,,-99.99,,2013-02-06 00:12:00,
2013-02-05 19:22:00,68.0,56.0,30.03,WNW,295,2.0,3.0,64,-99.99,,,-99.99,,2013-02-06 00:22:00,
2013-02-05 19:32:00,68.0,56.0,30.03,WNW,295,2.0,3.0,64,-99.99,,,-99.99,,2013-02-06 00:32:00,
2013-02-05 19:42:00,66.0,55.0,30.03,WNW,283,2.0,4.0,67,-99.99,,,-99.99,,2013-02-06 00:42:00,
2013-02-05 19:52:00,64.0,54.0,30.03,SSW,204,1.0,2.0,69,-99.99,,,-99.99,,2013-02-06 00:52:00,
2013-02-05 20:02:00,62.0,54.0,30.03,SSW,195,1.0,1.0,73,-99.99,,,-99.99,,2013-02-06 01:02:00,
2013-02-05 20:12:00,62.0,54.0,30.03,SSW,195,1.0,1.0,73,-99.99,,,-99.99,,2013-02-06 01:12:00,
2013-02-05 20:22:00,60.0,53.0,30.03,ESE,105,0.0,1.0,76,-99.99,,,-99.99,,2013-02-06 01:22:00,
2013-02-05 20:32:00,59.0,52.0,30.03,SE,145,1.0,2.0,79,-99.99,,,-99.99,,2013-02-06 01:32:00,
2013-02-05 20:42:00,59.0,52.0,30.03,SE,145,1.0,2.0,79,-99.99,,,-99.99,,2013-02-06 01:42:00,
2013-02-05 20:52:00,57.0,52.0,30.03,South,186,1.0,1.0,81,-99.99,,,-99.99,,2013-02-06 01:52:00,
2013-02-05 21:02:00,58.0,52.0,30.04,SSW,206,1.0,2.0,81,-99.99,,,-99.99,,2013-02-06 02:02:00,
2013-02-05 21:11:00,58.0,52.0,30.04,SSW,206,1.0,2.0,81,-99.99,,,-99.99,,2013-02-06 02:11:00,
2013-02-05 21:22:00,58.0,53.0,30.04,South,182,1.0,2.0,81,-99.99,,,-99.99,,2013-02-06 02:22:00,
2013-02-05 21:32:00,59.0,53.0,30.05,SW,234,1.0,2.0,80,-99.99,,,-99.99,,2013-02-06 02:32:00,
2013-02-05 21:42:00,59.0,53.0,30.05,SW,234,1.0,1.0,80,-99.99,,,-99.99,,2013-02-06 02:42:00,
2013-02-05 21:52:00,59.0,53.0,30.05,South,188,1.0,2.0,79,-99.99,,,-99.99,,2013-02-06 02:52:00,
2013-02-05 22:03:00,59.0,54.0,30.06,NNW,334,2.0,2.0,80,-99.99,,,-99.99,,2013-02-06 03:03:00,
2013-02-05 22:12:00,59.0,54.0,30.06,NNW,334,2.0,3.0,80,-99.99,,,-99.99,,2013-02-06 03:12:00,
2013-02-05 22:22:00,60.0,54.0,30.06,WSW,256,1.0,5.0,81,-99.99,,,-99.99,,2013-02-06 03:22:00,
2013-02-05 22:32:00,60.0,54.0,30.06,South,186,2.0,5.0,81,-99.99,,,-99.99,,2013-02-06 03:32:00,
2013-02-05 22:42:00,60.0,54.0,30.06,South,186,2.0,5.0,81,-99.99,,,-99.99,,2013-02-06 03:42:00,
2013-02-05 22:52:00,60.0,54.0,30.06,SE,129,1.0,3.0,81,-99.99,,,-99.99,,2013-02-06 03:52:00,
2013-02-05 23:02:00,59.0,54.0,30.06,ESE,106,2.0,3.0,82,-99.99,,,-99.99,,2013-02-06 04:02:00,
2013-02-05 23:11:00,59.0,54.0,30.06,ESE,106,2.0,2.0,82,-99.99,,,-99.99,,2013-02-06 04:11:00,
2013-02-05 23:22:00,60.0,55.0,30.07,NNE,31,3.0,3.0,81,-99.99,,,-99.99,,2013-02-06 04:22:00,
2013-02-05 23:32:00,62.0,56.0,30.07,NE,39,2.0,6.0,79,-99.99,,,-99.99,,2013-02-06 04:32:00,
2013-02-05 23:42:00,62.0,56.0,30.07,NE,39,2.0,4.0,79,-99.99,,,-99.99,,2013-02-06 04:42:00,
2013-02-05 23:52:00,62.0,56.0,30.07,NE,42,2.0,4.0,79,-99.99,,,-99.99,,2013-02-06 04:52:00,